Weather reports worldwide

Advertisment
Oberstdorf, Germany (10948): temperature & dewpoint: 16.02.2019 22:00:00 - 22.02.2019 22:00:00 (CET)Oberstdorf, Germany (10948): temperature 5cm & temperature -5cm: 16.02.2019 22:00:00 - 22.02.2019 22:00:00 (CET)Oberstdorf, Germany (10948): temperature -20cm & temperature -100cm: 16.02.2019 22:00:00 - 22.02.2019 22:00:00 (CET)Oberstdorf, Germany (10948): wind speed & gusts: 16.02.2019 22:00:00 - 22.02.2019 22:00:00 (CET)Oberstdorf, Germany (10948): wind direction: 16.02.2019 22:00:00 - 22.02.2019 22:00:00 (CET)Oberstdorf, Germany (10948): visibility: 16.02.2019 22:00:00 - 22.02.2019 22:00:00 (CET)Oberstdorf, Germany (10948): sunshine duration: 16.02.2019 22:00:00 - 22.02.2019 22:00:00 (CET)Oberstdorf, Germany (10948): precipitation: 16.02.2019 22:00:00 - 22.02.2019 22:00:00 (CET)
Date & Time tt [°C] td [°C] tt 5cm [°C] tt -5cm [°C] tt -20cm [°C] tt -100cm [°C] ff [km/h] ff [kn] fx [km/h] fx [kn] dd vv [km] sd [min] rr [mm]
22.02.2019 22:00:00 1,0 0,6 0,0 0,5 0,9 2,3 5 3 8 4 SSE 3,6 0 0,0
22.02.2019 21:00:00 1,0 0,7 0,0 0,5 0,9 2,3 0 0 10 6 N 3,0 0 0,0
22.02.2019 20:00:00 1,7 1,2 0,0 0,5 0,9 2,3 2 1 9 5 SSE 3,2 0 0,0
22.02.2019 19:00:00 1,7 1,2 0,0 0,5 0,9 2,3 5 3 9 5 SSE 3,2 0 0,0
22.02.2019 18:00:00 2,3 1,8 0,0 0,5 0,9 2,3 8 5 10 5 SSE 4,5 0 0,0
22.02.2019 17:00:00 3,2 2,4 0,0 0,5 0,9 2,3 7 4 10 6 SSE 4,5 0 0,0
22.02.2019 16:00:00 2,5 1,6 0,0 0,5 0,9 2,3 5 3 8 5 SSE 4,0 0 0,0
22.02.2019 15:00:00 2,6 2,3 0,0 0,5 0,9 2,3 4 2 6 3 SSE 1,2 0 0,1
22.02.2019 14:00:00 2,5 1,5 0,0 0,5 0,9 2,3 5 3 8 5 SW 1,3 0 0,4
22.02.2019 13:00:00 3,2 2,5 0,0 0,5 0,9 2,3 5 3 15 8 S 3,0 0 0,6
22.02.2019 12:00:00 4,0 1,6 0,0 0,5 0,9 2,3 2 1 11 6 NW 7 0 0,0
22.02.2019 11:00:00 2,2 1,0 0,0 0,5 0,9 2,3 8 4 16 9 SSE 8 0 0,1
22.02.2019 10:00:00 3,4 2,0 0,0 0,5 0,9 2,3 11 6 18 10 SSE 7 0 0,1
22.02.2019 09:00:00 2,7 1,2 0,0 0,5 0,9 2,3 8 5 13 7 SSE 11 0 0,0
22.02.2019 08:00:00 2,5 0,6 0,0 0,5 0,9 2,3 10 5 14 7 SSE 11 0 0,0
22.02.2019 07:00:00 2,2 0,4 0,0 0,6 0,9 2,3 4 2 10 6 SE 13 0 0,0
22.02.2019 06:00:00 2,4 0,2 0,0 0,5 0,9 2,3 6 4 13 7 E 18 0 0,0
22.02.2019 05:00:00 2,2 0,0 0,0 0,6 0,9 2,3 5 3 14 8 SW 25 0 0,0
22.02.2019 04:00:00 3,1 -0,2 0,0 0,6 0,9 2,3 3 2 12 6 SE 25 0 0,0
22.02.2019 03:00:00 2,7 -0,2 0,0 0,6 0,9 2,3 5 3 12 7 SSE 38 0 0,0
22.02.2019 02:00:00 2,7 0,0 0,0 0,6 0,9 2,3 4 2 9 5 ESE 36 0 0,0
22.02.2019 01:00:00 2,5 -0,3 0,0 0,6 0,9 2,3 5 3 11 6 SE 36 0 0,0
22.02.2019 00:00:00 2,0 -0,5 0,0 0,6 0,9 2,3 5 3 13 7 E 40 0 0,0
21.02.2019 23:00:00 1,7 -0,5 0,0 0,6 0,9 2,3 3 1 12 6 SSE 29 0 0,0
21.02.2019 22:00:00 2,2 -0,6 0,0 0,6 0,9 2,3 6 3 11 6 S 41 0 0,0
21.02.2019 21:00:00 2,4 -0,6 0,0 0,6 0,9 2,3 8 4 14 8 SSE 42 0 0,0
21.02.2019 20:00:00 2,4 -0,4 0,0 0,6 0,9 2,3 10 5 14 7 SSE 41 0 0,0
21.02.2019 19:00:00 3,3 -0,4 0,0 0,6 0,9 2,3 9 5 15 8 S 45 0 0,0
21.02.2019 18:00:00 4,8 -0,3 0,0 0,6 0,9 2,3 14 7 19 10 S 53 0 0,0
21.02.2019 17:00:00 3,9 -0,9 0,0 0,6 0,9 2,3 10 5 15 8 SSE 42 57 0,0
21.02.2019 16:00:00 8,2 -1,9 0,0 0,6 0,9 2,3 4 2 19 10 NNW 60 48 0,0
21.02.2019 15:00:00 10,4 -2,4 0,0 0,6 0,9 2,3 12 7 21 11 NNW 41 58 0,0
21.02.2019 14:00:00 10,5 -2,6 0,0 0,6 0,9 2,3 9 5 15 8 N 33 59 0,0
21.02.2019 13:00:00 6,6 -1,9 0,0 0,6 0,9 2,3 2 1 9 5 SSW 33 60 0,0
21.02.2019 12:00:00 4,8 -2,3 0,0 0,6 0,9 2,3 3 1 8 5 SSW 39 60 0,0
21.02.2019 11:00:00 4,1 -2,0 0,0 0,6 0,9 2,3 6 3 15 8 SSE 23 60 0,0
21.02.2019 10:00:00 2,6 -2,4 0,0 0,6 0,9 2,3 8 5 12 6 SSE 24 60 0,0
21.02.2019 09:00:00 -2,9 -6,2 0,0 0,6 0,9 2,3 6 3 10 5 S 33 13 0,0
21.02.2019 08:00:00 -2,5 -4,4 0,0 0,6 0,9 2,3 5 3 10 5 SSE 43 0 0,0
21.02.2019 07:00:00 -2,7 -4,3 0,0 0,6 0,9 2,3 5 3 10 5 SSE 39 0 0,0
21.02.2019 06:00:00 -1,9 -2,8 0,0 0,6 0,9 2,3 5 3 9 5 SSE 40 0 0,0
21.02.2019 05:00:00 -1,6 -3,3 0,0 0,6 0,9 2,3 4 2 8 4 S 46 0 0,0
21.02.2019 04:00:00 -1,2 -3,1 0,0 0,6 0,9 2,3 5 3 8 4 S 40 0 0,0
21.02.2019 03:00:00 -0,5 -1,7 0,0 0,6 0,9 2,3 4 2 10 5 S 43 0 0,0
21.02.2019 02:00:00 -0,5 -2,0 0,0 0,6 0,9 2,3 6 3 9 5 S 42 0 0,0
21.02.2019 01:00:00 -0,9 -2,1 0,0 0,6 0,9 2,3 4 2 7 4 S 32 0 0,0
21.02.2019 00:00:00 0,3 -1,2 0,0 0,6 0,9 2,3 4 2 5 3 SSE 37 0 0,0
20.02.2019 23:00:00 0,8 -0,9 0,0 0,6 0,9 2,3 2 1 7 4 SSE 32 0 0,0
20.02.2019 22:00:00 1,4 -0,6 0,0 0,6 0,9 2,3 4 2 12 7 SSE 30 0 0,0
20.02.2019 21:00:00 2,1 -0,3 0,0 0,6 0,9 2,3 5 3 10 5 SSE 27 0 0,0
20.02.2019 20:00:00 2,3 -0,3 0,0 0,6 0,9 2,3 6 3 11 6 S 39 0 0,0
20.02.2019 19:00:00 2,5 -0,2 0,0 0,6 0,9 2,3 5 3 13 7 SSE 30 0 0,0
20.02.2019 18:00:00 3,6 -0,3 0,0 0,6 0,9 2,3 8 4 11 6 SSE 32 0 0,0
20.02.2019 17:00:00 2,6 -0,8 0,0 0,6 0,9 2,3 4 2 7 4 S 24 7 0,0
20.02.2019 16:00:00 5,6 -1,5 0,0 0,6 0,9 2,3 2 1 11 6 WNW 23 13 0,0
20.02.2019 15:00:00 6,5 -2,2 0,0 0,6 0,9 2,3 6 3 11 6 N 25 14 0,0
20.02.2019 14:00:00 7,5 -2,3 0,0 0,6 0,9 2,3 2 1 4 2 N 40 28 0,0
20.02.2019 13:00:00 5,5 -2,7 0,0 0,6 0,9 2,3 4 2 7 4 S 70 31 0,0
20.02.2019 12:00:00 4,6 -3,2 0,0 0,6 0,9 2,3 6 3 10 5 N 70 31 0,0
20.02.2019 11:00:00 2,3 -3,1 0,0 0,6 0,9 2,3 4 2 5 3 SSE 35 50 0,0
20.02.2019 10:00:00 -0,7 -3,7 0,0 0,6 0,9 2,3 0 0 5 3 N 34 11 0,0
20.02.2019 09:00:00 -1,7 -4,3 0,0 0,6 0,9 2,3 3 1 11 6 SE 32 0 0,0
20.02.2019 08:00:00 -4,6 -5,9 0,0 0,6 0,9 2,3 4 2 8 5 SSE 28 0 0,0
20.02.2019 07:00:00 -3,5 -5,2 0,0 0,6 0,9 2,3 5 3 9 5 SSE 43 0 0,0
20.02.2019 06:00:00 -1,7 -2,9 0,0 0,6 0,9 2,3 0 0 8 4 N 41 0 0,0
20.02.2019 05:00:00 -0,3 -1,9 0,0 0,6 0,9 2,3 2 1 8 4 S 56 0 0,0
20.02.2019 04:00:00 0,9 -1,0 0,0 0,6 0,9 2,3 4 2 9 5 SE 50 0 0,0
20.02.2019 03:00:00 0,3 -1,4 0,0 0,6 0,9 2,3 2 1 9 5 S 53 0 0,0
20.02.2019 02:00:00 1,0 -1,3 0,0 0,6 0,9 2,3 4 2 14 7 S 60 0 0,0
20.02.2019 01:00:00 0,9 -1,6 0,0 0,6 0,9 2,3 5 3 10 5 S 59 0 0,0
20.02.2019 00:00:00 1,9 -1,4 0,0 0,6 0,9 2,3 7 4 13 7 SSE 59 0 0,0
19.02.2019 23:00:00 1,0 -1,6 0,0 0,6 0,9 2,3 6 4 14 8 S 58 0 0,0
19.02.2019 22:00:00 2,8 -1,8 0,0 0,6 0,9 2,3 9 5 14 8 S 70 0 0,0
19.02.2019 21:00:00 1,6 -1,4 0,0 0,6 0,9 2,3 9 5 13 7 S 63 0 0,0
19.02.2019 20:00:00 1,5 -2,0 0,0 0,6 0,9 2,3 5 3 19 11 S 60 0 0,0
19.02.2019 19:00:00 3,5 -1,6 0,0 0,6 0,9 2,3 18 10 23 12 SSE 68 0 0,0
19.02.2019 18:00:00 3,1 -1,4 0,0 0,6 0,9 2,3 13 7 17 9 SSE 62 0 0,0
19.02.2019 17:00:00 5,7 -1,2 0,0 0,6 0,9 2,3 5 3 16 9 S 65 54 0,0
19.02.2019 16:00:00 6,6 -2,1 0,0 0,6 0,9 2,3 9 5 15 8 SE 44 57 0,0
19.02.2019 15:00:00 8,7 -3,1 0,0 0,6 0,9 2,3 9 5 16 8 N 25 37 0,0
19.02.2019 14:00:00 8,2 -3,2 0,0 0,6 0,9 2,3 5 3 12 7 N 39 35 0,0
19.02.2019 13:00:00 7,2 -2,9 0,0 0,6 0,9 2,3 4 2 12 6 S 70 60 0,0
19.02.2019 12:00:00 4,8 -2,6 0,0 0,6 0,9 2,3 10 5 14 8 SSE 70 60 0,0
19.02.2019 11:00:00 3,1 -3,4 0,0 0,6 0,9 2,3 11 6 18 10 SSE 26 60 0,0
19.02.2019 10:00:00 1,3 -4,8 0,0 0,6 0,9 2,3 6 3 17 9 SSE 22 58 0,0
19.02.2019 09:00:00 -3,5 -5,8 0,0 0,6 0,9 2,3 10 6 19 10 S 39 6 0,0
19.02.2019 08:00:00 -3,8 -6,4 0,0 0,6 0,9 2,3 8 4 11 6 SSE 44 0 0,0
19.02.2019 07:00:00 -2,8 -6,0 0,0 0,6 0,9 2,3 7 4 18 10 SSE 49 0 0,0
19.02.2019 06:00:00 -1,7 -4,5 0,0 0,6 0,9 2,3 9 5 16 8 SSW 55 0 0,0
19.02.2019 05:00:00 -3,5 -6,8 0,0 0,6 0,9 2,3 6 3 19 10 S 70 0 0,0
19.02.2019 04:00:00 -4,2 -7,9 0,0 0,6 0,9 2,3 10 5 22 12 SSE 70 0 0,0
19.02.2019 03:00:00 -1,5 -4,7 0,0 0,6 0,9 2,3 11 6 18 10 SSE 70 0 0,0
19.02.2019 02:00:00 -1,9 -4,6 0,0 0,6 0,9 2,3 7 4 13 7 S 70 0 0,0
19.02.2019 01:00:00 -5,2 -6,4 0,0 0,6 0,9 2,3 6 3 10 5 S 70 0 0,0
19.02.2019 00:00:00 -3,8 -5,8 0,0 0,6 0,9 2,3 5 3 13 7 SSE 70 0 0,0
18.02.2019 23:00:00 -3,4 -5,2 0,0 0,6 0,9 2,3 4 2 10 5 SSE 70 0 0,0
18.02.2019 22:00:00 -2,9 -4,6 0,0 0,6 0,9 2,3 4 2 10 5 S 70 0 0,0
18.02.2019 21:00:00 -1,7 -3,9 0,0 0,6 0,9 2,3 5 3 12 7 S 70 0 0,0
18.02.2019 20:00:00 -0,4 -3,5 0,0 0,6 0,9 2,3 7 4 10 6 S 70 0 0,0
18.02.2019 19:00:00 1,2 -3,4 0,0 0,6 0,9 2,3 9 5 15 8 SSE 70 0 0,0
18.02.2019 18:00:00 2,9 -2,8 0,0 0,6 0,9 2,3 8 5 16 9 S 70 0 0,0
18.02.2019 17:00:00 3,8 -3,0 0,0 0,6 0,9 2,3 13 7 16 9 SSE 70 51 0,0
18.02.2019 16:00:00 4,3 -4,1 0,0 0,6 0,9 2,3 4 2 7 4 S 53 60 0,0
18.02.2019 15:00:00 6,9 -6,9 0,0 0,6 0,9 2,3 3 1 5 3 SSW 70 60 0,0
18.02.2019 14:00:00 6,8 -6,5 0,0 0,6 0,9 2,3 2 1 4 2 W 70 60 0,0
18.02.2019 13:00:00 5,7 -4,2 0,0 0,6 0,9 2,3 1 0 4 2 W 70 60 0,0
18.02.2019 12:00:00 2,4 -3,8 0,0 0,6 0,9 2,3 0 0 4 2 N 70 60 0,0
18.02.2019 11:00:00 0,7 -5,8 0,0 0,6 0,9 2,3 0 0 9 5 ESE 37 60 0,0
18.02.2019 10:00:00 -0,8 -7,3 0,0 0,6 0,9 2,3 4 2 8 4 SSE 58 54 0,0
18.02.2019 09:00:00 -8,7 -10,2 0,0 0,6 0,9 2,3 3 2 7 4 SSE 48 0 0,0
18.02.2019 08:00:00 -6,6 -7,6 0,0 0,6 0,9 2,3 3 1 10 5 E 61 0 0,0
18.02.2019 07:00:00 -8,8 -10,4 0,0 0,6 0,9 2,3 3 1 7 4 SE 70 0 0,0
18.02.2019 06:00:00 -9,3 -11,2 0,0 0,6 0,9 2,3 4 2 8 5 SSE 70 0 0,0
18.02.2019 05:00:00 -8,3 -9,9 0,0 0,6 0,9 2,3 0 0 8 4 N 70 0 0,0
18.02.2019 04:00:00 -8,3 -10,2 0,0 0,6 0,9 2,3 3 2 7 4 SE 70 0 0,0
18.02.2019 03:00:00 -6,7 -8,1 0,0 0,6 0,9 2,3 2 1 5 3 SE 70 0 0,0
18.02.2019 02:00:00 -6,9 -9,6 0,0 0,6 0,9 2,3 3 1 8 4 SW 70 0 0,0
18.02.2019 01:00:00 -5,5 -7,3 0,0 0,6 0,9 2,3 5 3 9 5 S 70 0 0,0
18.02.2019 00:00:00 -6,8 -8,7 0,0 0,6 0,9 2,3 4 2 8 4 S 70 0 0,0
17.02.2019 23:00:00 -6,1 -8,6 0,0 0,6 0,9 2,3 5 3 9 5 S 70 0 0,0
17.02.2019 22:00:00 -4,2 -7,1 0,0 0,6 0,9 2,3 4 2 10 5 SSE 70 0 0,0
17.02.2019 21:00:00 -1,6 -6,3 0,0 0,6 0,9 2,3 7 4 11 6 SSE 70 0 0,0
17.02.2019 20:00:00 -1,6 -6,0 0,0 0,6 0,9 2,3 6 3 14 7 S 60 0 0,0
17.02.2019 19:00:00 1,1 -4,1 0,0 0,6 0,9 2,3 10 5 12 7 SSE 70 0 0,0
17.02.2019 18:00:00 2,5 -3,2 0,0 0,6 0,9 2,3 9 5 20 11 SSE 70 0 0,0
17.02.2019 17:00:00 6,0 -3,7 0,0 0,6 0,9 2,3 16 9 18 10 S 70 49 0,0
17.02.2019 16:00:00 5,5 -3,0 0,0 0,6 0,9 2,3 11 6 13 7 SSE 41 60 0,0
17.02.2019 15:00:00 6,0 -3,1 0,0 0,6 0,9 2,3 3 2 5 3 S 39 60 0,0
17.02.2019 14:00:00 4,8 -3,8 0,0 0,6 0,9 2,3 0 0 2 1 N 69 60 0,0
17.02.2019 13:00:00 5,9 -3,7 0,0 0,6 0,9 2,3 0 0 4 2 N 70 60 0,0
17.02.2019 12:00:00 3,1 -3,6 0,0 0,6 0,9 2,3 2 1 5 3 SE 36 60 0,0
17.02.2019 11:00:00 0,6 -6,0 0,0 0,6 0,9 2,3 3 2 9 5 SE 29 60 0,0
17.02.2019 10:00:00 0,4 -6,8 0,0 0,6 0,9 2,3 6 3 8 4 SSE 70 51 0,0
17.02.2019 09:00:00 -9,1 -10,5 0,0 0,6 0,9 2,3 3 2 9 5 SSE 70 0 0,0
17.02.2019 08:00:00 -10,0 -11,9 0,0 0,6 0,9 2,3 3 2 7 4 S 70 0 0,0
17.02.2019 07:00:00 -8,1 -9,4 0,0 0,6 0,9 2,3 3 2 9 5 SSE 70 0 0,0
17.02.2019 06:00:00 -8,8 -10,3 0,0 0,6 0,9 2,3 3 2 9 5 SSE 70 0 0,0
17.02.2019 05:00:00 -7,1 -7,5 0,0 0,6 0,9 2,3 3 1 8 5 S 70 0 0,0
17.02.2019 04:00:00 -8,5 -10,6 0,0 0,6 0,9 2,3 6 4 9 5 S 70 0 0,0
17.02.2019 03:00:00 -7,6 -9,6 0,0 0,6 0,9 2,3 6 3 10 5 S 70 0 0,0
17.02.2019 02:00:00 -6,1 -7,4 0,0 0,6 0,9 2,3 2 1 7 4 SE 67 0 0,0
17.02.2019 01:00:00 -7,8 -9,9 0,0 0,6 0,9 2,3 3 1 7 4 S 53 0 0,0
17.02.2019 00:00:00 -5,5 -6,6 0,0 0,6 0,9 2,3 4 2 8 4 SE 28 0 0,0
16.02.2019 23:00:00 -5,9 -7,3 0,0 0,6 0,9 2,3 2 1 6 4 SSE 19 0 0,0
16.02.2019 22:00:00 -3,9 -5,7 0,0 0,6 0,9 2,3 0 0 8 4 N 36 0 0,0

tt = temperature
td = dewpoint
tt 5cm = temperature 5cm
tt -5cm = temperature -5cm
tt -20cm = temperature -20cm
tt -100cm = temperature -100cm
ff = wind speed
fx = gusts
dd = wind direction
vv = visibility
sd = sunshine duration
rr = precipitation

Next stations